sensor_id;sensor_type;location;lat;lon;timestamp;P1;durP1;ratioP1;P2;durP2;ratioP2
30046;SDS011;16878;52.542;13.426;2023-02-28T00:00:21;18.90;;;7.55;;
30046;SDS011;16878;52.542;13.426;2023-02-28T00:02:47;18.02;;;7.35;;
30046;SDS011;16878;52.542;13.426;2023-02-28T00:05:15;15.98;;;6.38;;
30046;SDS011;16878;52.542;13.426;2023-02-28T00:07:43;16.33;;;7.20;;
30046;SDS011;16878;52.542;13.426;2023-02-28T00:10:10;12.13;;;6.85;;
30046;SDS011;16878;52.542;13.426;2023-02-28T00:12:41;15.68;;;6.93;;
30046;SDS011;16878;52.542;13.426;2023-02-28T00:15:07;10.55;;;5.40;;
30046;SDS011;16878;52.542;13.426;2023-02-28T00:17:34;13.93;;;5.80;;
30046;SDS011;16878;52.542;13.426;2023-02-28T00:20:00;11.23;;;6.03;;
30046;SDS011;16878;52.542;13.426;2023-02-28T00:22:27;12.02;;;5.60;;
30046;SDS011;16878;52.542;13.426;2023-02-28T00:24:52;9.52;;;5.05;;
30046;SDS011;16878;52.542;13.426;2023-02-28T00:27:18;14.43;;;5.55;;
30046;SDS011;16878;52.542;13.426;2023-02-28T00:29:45;13.32;;;5.30;;
30046;SDS011;16878;52.542;13.426;2023-02-28T00:32:13;13.05;;;5.65;;
30046;SDS011;16878;52.542;13.426;2023-02-28T00:34:39;8.30;;;4.72;;
30046;SDS011;16878;52.542;13.426;2023-02-28T00:37:05;13.65;;;5.57;;
30046;SDS011;16878;52.542;13.426;2023-02-28T00:39:35;11.45;;;5.50;;
30046;SDS011;16878;52.542;13.426;2023-02-28T00:42:02;10.85;;;5.45;;
30046;SDS011;16878;52.542;13.426;2023-02-28T00:44:28;10.52;;;5.65;;
30046;SDS011;16878;52.542;13.426;2023-02-28T00:46:54;13.32;;;5.57;;
30046;SDS011;16878;52.542;13.426;2023-02-28T00:49:21;14.25;;;6.35;;
30046;SDS011;16878;52.542;13.426;2023-02-28T00:51:47;12.60;;;5.95;;
30046;SDS011;16878;52.542;13.426;2023-02-28T00:54:13;12.80;;;5.93;;
30046;SDS011;16878;52.542;13.426;2023-02-28T00:56:39;11.57;;;6.18;;
30046;SDS011;16878;52.542;13.426;2023-02-28T00:59:05;12.98;;;5.35;;
30046;SDS011;16878;52.542;13.426;2023-02-28T01:01:31;14.02;;;6.20;;
30046;SDS011;16878;52.542;13.426;2023-02-28T01:03:57;15.60;;;6.50;;
30046;SDS011;16878;52.542;13.426;2023-02-28T01:06:22;12.18;;;5.90;;
30046;SDS011;16878;52.542;13.426;2023-02-28T01:08:48;14.05;;;6.63;;
30046;SDS011;16878;52.542;13.426;2023-02-28T01:11:15;14.52;;;6.32;;
30046;SDS011;16878;52.542;13.426;2023-02-28T01:13:42;15.88;;;6.78;;
30046;SDS011;16878;52.542;13.426;2023-02-28T01:16:08;12.98;;;6.03;;
30046;SDS011;16878;52.542;13.426;2023-02-28T01:18:35;10.73;;;5.63;;
30046;SDS011;16878;52.542;13.426;2023-02-28T01:21:05;16.88;;;6.25;;
30046;SDS011;16878;52.542;13.426;2023-02-28T01:23:31;15.20;;;6.60;;
30046;SDS011;16878;52.542;13.426;2023-02-28T01:26:02;14.77;;;6.70;;
30046;SDS011;16878;52.542;13.426;2023-02-28T01:28:29;14.15;;;5.65;;
30046;SDS011;16878;52.542;13.426;2023-02-28T01:30:55;15.07;;;6.45;;
30046;SDS011;16878;52.542;13.426;2023-02-28T01:33:21;16.70;;;7.35;;
30046;SDS011;16878;52.542;13.426;2023-02-28T01:35:46;14.20;;;6.47;;
30046;SDS011;16878;52.542;13.426;2023-02-28T01:38:12;16.40;;;7.25;;
30046;SDS011;16878;52.542;13.426;2023-02-28T01:40:38;11.38;;;5.65;;
30046;SDS011;16878;52.542;13.426;2023-02-28T01:43:07;13.55;;;6.03;;
30046;SDS011;16878;52.542;13.426;2023-02-28T01:45:46;16.17;;;6.30;;
30046;SDS011;16878;52.542;13.426;2023-02-28T01:48:12;12.10;;;6.50;;
30046;SDS011;16878;52.542;13.426;2023-02-28T01:50:39;14.27;;;6.47;;
30046;SDS011;16878;52.542;13.426;2023-02-28T01:53:19;11.00;;;6.15;;
30046;SDS011;16878;52.542;13.426;2023-02-28T01:55:51;14.88;;;6.60;;
30046;SDS011;16878;52.542;13.426;2023-02-28T01:58:21;16.02;;;7.13;;
30046;SDS011;16878;52.542;13.426;2023-02-28T02:00:48;15.55;;;6.93;;
30046;SDS011;16878;52.542;13.426;2023-02-28T02:03:15;13.20;;;7.30;;
30046;SDS011;16878;52.542;13.426;2023-02-28T02:05:44;11.23;;;6.30;;
30046;SDS011;16878;52.542;13.426;2023-02-28T02:08:15;14.70;;;7.55;;
30046;SDS011;16878;52.542;13.426;2023-02-28T02:28:04;15.50;;;7.10;;
30046;SDS011;16878;52.542;13.426;2023-02-28T02:36:35;12.68;;;7.38;;
30046;SDS011;16878;52.542;13.426;2023-02-28T02:39:36;16.08;;;8.23;;
30046;SDS011;16878;52.542;13.426;2023-02-28T02:42:09;13.20;;;7.00;;
30046;SDS011;16878;52.542;13.426;2023-02-28T02:44:42;15.13;;;7.75;;
30046;SDS011;16878;52.542;13.426;2023-02-28T02:47:16;20.70;;;7.88;;
30046;SDS011;16878;52.542;13.426;2023-02-28T02:49:49;17.25;;;8.30;;
30046;SDS011;16878;52.542;13.426;2023-02-28T02:52:22;18.23;;;8.27;;
30046;SDS011;16878;52.542;13.426;2023-02-28T02:54:54;20.13;;;9.32;;
30046;SDS011;16878;52.542;13.426;2023-02-28T02:57:30;21.92;;;7.85;;
30046;SDS011;16878;52.542;13.426;2023-02-28T03:00:10;17.25;;;8.95;;
30046;SDS011;16878;52.542;13.426;2023-02-28T03:02:37;19.55;;;8.82;;
30046;SDS011;16878;52.542;13.426;2023-02-28T03:05:16;17.30;;;8.13;;
30046;SDS011;16878;52.542;13.426;2023-02-28T03:08:04;19.70;;;9.15;;
30046;SDS011;16878;52.542;13.426;2023-02-28T03:10:38;19.00;;;9.85;;
30046;SDS011;16878;52.542;13.426;2023-02-28T03:16:02;19.40;;;9.45;;
30046;SDS011;16878;52.542;13.426;2023-02-28T03:18:36;19.88;;;9.23;;
30046;SDS011;16878;52.542;13.426;2023-02-28T03:21:13;16.05;;;8.63;;
30046;SDS011;16878;52.542;13.426;2023-02-28T03:23:56;20.85;;;9.00;;
30046;SDS011;16878;52.542;13.426;2023-02-28T03:26:29;18.08;;;9.13;;
30046;SDS011;16878;52.542;13.426;2023-02-28T03:29:08;18.75;;;9.80;;
30046;SDS011;16878;52.542;13.426;2023-02-28T03:31:44;17.85;;;9.23;;
30046;SDS011;16878;52.542;13.426;2023-02-28T03:36:51;17.75;;;9.55;;
30046;SDS011;16878;52.542;13.426;2023-02-28T03:39:21;18.73;;;9.90;;
30046;SDS011;16878;52.542;13.426;2023-02-28T03:41:53;15.85;;;9.82;;
30046;SDS011;16878;52.542;13.426;2023-02-28T03:44:26;18.58;;;9.43;;
30046;SDS011;16878;52.542;13.426;2023-02-28T03:47:21;19.88;;;9.40;;
30046;SDS011;16878;52.542;13.426;2023-02-28T03:50:24;15.18;;;8.30;;
30046;SDS011;16878;52.542;13.426;2023-02-28T03:58:54;19.25;;;8.73;;
30046;SDS011;16878;52.542;13.426;2023-02-28T04:01:44;20.48;;;10.40;;
30046;SDS011;16878;52.542;13.426;2023-02-28T04:04:12;22.10;;;10.77;;
30046;SDS011;16878;52.542;13.426;2023-02-28T04:06:39;19.02;;;9.73;;
30046;SDS011;16878;52.542;13.426;2023-02-28T04:09:05;19.98;;;10.55;;
30046;SDS011;16878;52.542;13.426;2023-02-28T04:11:36;19.02;;;10.02;;
30046;SDS011;16878;52.542;13.426;2023-02-28T04:14:04;19.25;;;9.82;;
30046;SDS011;16878;52.542;13.426;2023-02-28T04:16:31;22.58;;;11.52;;
30046;SDS011;16878;52.542;13.426;2023-02-28T04:19:02;22.90;;;10.43;;
30046;SDS011;16878;52.542;13.426;2023-02-28T04:21:34;20.05;;;10.30;;
30046;SDS011;16878;52.542;13.426;2023-02-28T04:24:02;25.30;;;10.77;;
30046;SDS011;16878;52.542;13.426;2023-02-28T04:26:29;27.02;;;11.63;;
30046;SDS011;16878;52.542;13.426;2023-02-28T04:28:59;23.15;;;11.05;;
30046;SDS011;16878;52.542;13.426;2023-02-28T04:31:25;21.40;;;11.35;;
30046;SDS011;16878;52.542;13.426;2023-02-28T04:33:51;23.00;;;10.48;;
30046;SDS011;16878;52.542;13.426;2023-02-28T04:36:17;25.15;;;11.70;;
30046;SDS011;16878;52.542;13.426;2023-02-28T04:38:43;31.80;;;12.32;;
30046;SDS011;16878;52.542;13.426;2023-02-28T04:41:09;26.52;;;12.32;;
30046;SDS011;16878;52.542;13.426;2023-02-28T04:43:35;22.55;;;10.25;;
30046;SDS011;16878;52.542;13.426;2023-02-28T04:46:02;26.08;;;11.75;;
30046;SDS011;16878;52.542;13.426;2023-02-28T04:48:30;28.17;;;12.18;;
30046;SDS011;16878;52.542;13.426;2023-02-28T04:51:01;22.77;;;10.40;;
30046;SDS011;16878;52.542;13.426;2023-02-28T04:53:29;24.48;;;10.07;;
30046;SDS011;16878;52.542;13.426;2023-02-28T04:55:56;19.90;;;10.82;;
30046;SDS011;16878;52.542;13.426;2023-02-28T04:58:22;26.00;;;11.15;;
30046;SDS011;16878;52.542;13.426;2023-02-28T05:00:48;19.55;;;10.45;;
30046;SDS011;16878;52.542;13.426;2023-02-28T05:03:15;25.92;;;12.75;;
30046;SDS011;16878;52.542;13.426;2023-02-28T05:05:40;27.60;;;13.48;;
30046;SDS011;16878;52.542;13.426;2023-02-28T05:08:06;27.92;;;14.50;;
30046;SDS011;16878;52.542;13.426;2023-02-28T05:10:32;24.98;;;14.13;;
30046;SDS011;16878;52.542;13.426;2023-02-28T05:12:58;30.65;;;13.68;;
30046;SDS011;16878;52.542;13.426;2023-02-28T05:15:23;28.88;;;12.85;;
30046;SDS011;16878;52.542;13.426;2023-02-28T05:17:49;27.95;;;13.10;;
30046;SDS011;16878;52.542;13.426;2023-02-28T05:20:15;37.33;;;13.63;;
30046;SDS011;16878;52.542;13.426;2023-02-28T05:22:41;23.08;;;12.30;;
30046;SDS011;16878;52.542;13.426;2023-02-28T05:25:08;27.02;;;14.15;;
30046;SDS011;16878;52.542;13.426;2023-02-28T05:27:38;30.00;;;14.73;;
30046;SDS011;16878;52.542;13.426;2023-02-28T05:30:05;30.40;;;13.80;;
30046;SDS011;16878;52.542;13.426;2023-02-28T05:32:31;29.63;;;14.30;;
30046;SDS011;16878;52.542;13.426;2023-02-28T05:34:57;32.80;;;14.00;;
30046;SDS011;16878;52.542;13.426;2023-02-28T05:37:23;31.50;;;13.93;;
30046;SDS011;16878;52.542;13.426;2023-02-28T05:39:49;25.02;;;13.00;;
30046;SDS011;16878;52.542;13.426;2023-02-28T05:42:14;24.90;;;12.85;;
30046;SDS011;16878;52.542;13.426;2023-02-28T05:44:40;30.77;;;12.65;;
30046;SDS011;16878;52.542;13.426;2023-02-28T05:47:07;32.95;;;12.93;;
30046;SDS011;16878;52.542;13.426;2023-02-28T05:49:32;28.50;;;13.82;;
30046;SDS011;16878;52.542;13.426;2023-02-28T05:51:58;33.78;;;17.90;;
30046;SDS011;16878;52.542;13.426;2023-02-28T05:54:24;26.48;;;12.80;;
30046;SDS011;16878;52.542;13.426;2023-02-28T05:56:50;28.60;;;13.40;;
30046;SDS011;16878;52.542;13.426;2023-02-28T05:59:15;28.85;;;12.68;;
30046;SDS011;16878;52.542;13.426;2023-02-28T06:01:42;34.45;;;15.48;;
30046;SDS011;16878;52.542;13.426;2023-02-28T06:04:13;40.28;;;19.92;;
30046;SDS011;16878;52.542;13.426;2023-02-28T06:06:43;30.88;;;13.85;;
30046;SDS011;16878;52.542;13.426;2023-02-28T06:09:12;29.83;;;14.75;;
30046;SDS011;16878;52.542;13.426;2023-02-28T06:11:39;32.72;;;12.75;;
30046;SDS011;16878;52.542;13.426;2023-02-28T06:14:05;30.80;;;13.63;;
30046;SDS011;16878;52.542;13.426;2023-02-28T06:16:32;26.05;;;13.85;;
30046;SDS011;16878;52.542;13.426;2023-02-28T06:19:00;38.17;;;14.50;;
30046;SDS011;16878;52.542;13.426;2023-02-28T06:21:27;30.27;;;14.50;;
30046;SDS011;16878;52.542;13.426;2023-02-28T06:23:54;35.75;;;15.07;;
30046;SDS011;16878;52.542;13.426;2023-02-28T06:26:20;33.53;;;15.60;;
30046;SDS011;16878;52.542;13.426;2023-02-28T06:28:46;34.10;;;15.75;;
30046;SDS011;16878;52.542;13.426;2023-02-28T06:31:13;34.65;;;16.77;;
30046;SDS011;16878;52.542;13.426;2023-02-28T06:33:44;35.92;;;16.98;;
30046;SDS011;16878;52.542;13.426;2023-02-28T06:36:11;34.22;;;17.98;;
30046;SDS011;16878;52.542;13.426;2023-02-28T06:38:38;38.90;;;18.27;;
30046;SDS011;16878;52.542;13.426;2023-02-28T06:41:04;41.08;;;17.60;;
30046;SDS011;16878;52.542;13.426;2023-02-28T06:43:32;39.05;;;18.48;;
30046;SDS011;16878;52.542;13.426;2023-02-28T06:46:00;40.67;;;19.33;;
30046;SDS011;16878;52.542;13.426;2023-02-28T06:48:27;43.08;;;17.90;;
30046;SDS011;16878;52.542;13.426;2023-02-28T06:51:03;47.40;;;19.17;;
30046;SDS011;16878;52.542;13.426;2023-02-28T06:53:35;51.63;;;20.20;;
30046;SDS011;16878;52.542;13.426;2023-02-28T06:56:04;40.53;;;17.48;;
30046;SDS011;16878;52.542;13.426;2023-02-28T06:58:34;44.50;;;18.48;;
30046;SDS011;16878;52.542;13.426;2023-02-28T07:01:00;34.72;;;17.25;;
30046;SDS011;16878;52.542;13.426;2023-02-28T07:03:27;37.55;;;17.15;;
30046;SDS011;16878;52.542;13.426;2023-02-28T07:05:52;34.00;;;16.20;;
30046;SDS011;16878;52.542;13.426;2023-02-28T07:08:18;35.50;;;16.58;;
30046;SDS011;16878;52.542;13.426;2023-02-28T07:10:44;41.35;;;17.75;;
30046;SDS011;16878;52.542;13.426;2023-02-28T07:13:10;37.33;;;17.13;;
30046;SDS011;16878;52.542;13.426;2023-02-28T07:15:36;31.35;;;15.75;;
30046;SDS011;16878;52.542;13.426;2023-02-28T07:18:02;34.70;;;17.17;;
30046;SDS011;16878;52.542;13.426;2023-02-28T07:20:28;37.28;;;17.55;;
30046;SDS011;16878;52.542;13.426;2023-02-28T07:22:55;47.30;;;20.23;;
30046;SDS011;16878;52.542;13.426;2023-02-28T07:25:25;32.17;;;16.70;;
30046;SDS011;16878;52.542;13.426;2023-02-28T07:27:52;35.80;;;17.52;;
30046;SDS011;16878;52.542;13.426;2023-02-28T07:30:19;37.67;;;18.98;;
30046;SDS011;16878;52.542;13.426;2023-02-28T07:32:45;36.58;;;18.77;;
30046;SDS011;16878;52.542;13.426;2023-02-28T07:35:10;33.90;;;18.50;;
30046;SDS011;16878;52.542;13.426;2023-02-28T07:37:36;38.20;;;17.77;;
30046;SDS011;16878;52.542;13.426;2023-02-28T07:40:07;38.03;;;18.67;;
30046;SDS011;16878;52.542;13.426;2023-02-28T07:42:39;36.65;;;18.38;;
30046;SDS011;16878;52.542;13.426;2023-02-28T07:45:07;35.03;;;17.65;;
30046;SDS011;16878;52.542;13.426;2023-02-28T07:47:33;36.28;;;16.55;;
30046;SDS011;16878;52.542;13.426;2023-02-28T07:49:59;35.17;;;16.83;;
30046;SDS011;16878;52.542;13.426;2023-02-28T07:52:25;29.77;;;17.15;;
30046;SDS011;16878;52.542;13.426;2023-02-28T07:54:51;32.47;;;15.52;;
30046;SDS011;16878;52.542;13.426;2023-02-28T07:57:17;32.17;;;15.05;;
30046;SDS011;16878;52.542;13.426;2023-02-28T07:59:43;31.38;;;16.45;;
30046;SDS011;16878;52.542;13.426;2023-02-28T08:02:13;36.47;;;16.20;;
30046;SDS011;16878;52.542;13.426;2023-02-28T08:04:39;31.83;;;16.30;;
30046;SDS011;16878;52.542;13.426;2023-02-28T08:07:05;24.35;;;12.02;;
30046;SDS011;16878;52.542;13.426;2023-02-28T08:09:39;33.38;;;14.02;;
30046;SDS011;16878;52.542;13.426;2023-02-28T08:12:05;28.35;;;13.13;;
30046;SDS011;16878;52.542;13.426;2023-02-28T08:14:32;28.67;;;12.45;;
30046;SDS011;16878;52.542;13.426;2023-02-28T08:16:58;29.05;;;12.55;;
30046;SDS011;16878;52.542;13.426;2023-02-28T08:19:24;24.23;;;12.60;;
30046;SDS011;16878;52.542;13.426;2023-02-28T08:21:49;17.55;;;8.88;;
30046;SDS011;16878;52.542;13.426;2023-02-28T08:24:15;15.52;;;8.00;;
30046;SDS011;16878;52.542;13.426;2023-02-28T08:26:41;20.95;;;7.65;;
30046;SDS011;16878;52.542;13.426;2023-02-28T08:29:06;23.73;;;8.70;;
30046;SDS011;16878;52.542;13.426;2023-02-28T08:31:32;21.48;;;6.90;;
30046;SDS011;16878;52.542;13.426;2023-02-28T08:34:00;23.00;;;7.20;;
30046;SDS011;16878;52.542;13.426;2023-02-28T08:36:36;10.73;;;5.95;;
30046;SDS011;16878;52.542;13.426;2023-02-28T08:39:02;22.70;;;7.47;;
30046;SDS011;16878;52.542;13.426;2023-02-28T08:41:31;14.73;;;6.70;;
30046;SDS011;16878;52.542;13.426;2023-02-28T08:46:23;11.57;;;4.32;;
30046;SDS011;16878;52.542;13.426;2023-02-28T08:48:53;26.75;;;5.13;;
30046;SDS011;16878;52.542;13.426;2023-02-28T08:51:21;12.52;;;3.55;;
30046;SDS011;16878;52.542;13.426;2023-02-28T08:54:00;11.85;;;4.10;;
30046;SDS011;16878;52.542;13.426;2023-02-28T08:56:26;19.52;;;4.70;;
30046;SDS011;16878;52.542;13.426;2023-02-28T08:58:54;20.30;;;4.60;;
30046;SDS011;16878;52.542;13.426;2023-02-28T09:01:25;19.40;;;4.45;;
30046;SDS011;16878;52.542;13.426;2023-02-28T09:03:52;14.27;;;4.18;;
30046;SDS011;16878;52.542;13.426;2023-02-28T09:06:19;6.93;;;3.35;;
30046;SDS011;16878;52.542;13.426;2023-02-28T09:08:46;8.70;;;3.70;;
30046;SDS011;16878;52.542;13.426;2023-02-28T09:11:12;12.25;;;4.00;;
30046;SDS011;16878;52.542;13.426;2023-02-28T09:13:39;14.15;;;5.03;;
30046;SDS011;16878;52.542;13.426;2023-02-28T09:16:05;11.48;;;4.13;;
30046;SDS011;16878;52.542;13.426;2023-02-28T09:18:36;13.00;;;4.03;;
30046;SDS011;16878;52.542;13.426;2023-02-28T09:21:09;14.38;;;4.35;;
30046;SDS011;16878;52.542;13.426;2023-02-28T09:23:40;11.90;;;3.85;;
30046;SDS011;16878;52.542;13.426;2023-02-28T09:26:06;10.77;;;3.25;;
30046;SDS011;16878;52.542;13.426;2023-02-28T09:28:33;6.85;;;3.28;;
30046;SDS011;16878;52.542;13.426;2023-02-28T09:30:59;14.27;;;3.80;;
30046;SDS011;16878;52.542;13.426;2023-02-28T09:33:25;6.00;;;2.97;;
30046;SDS011;16878;52.542;13.426;2023-02-28T09:35:57;8.45;;;3.05;;
30046;SDS011;16878;52.542;13.426;2023-02-28T09:38:25;6.07;;;3.70;;
30046;SDS011;16878;52.542;13.426;2023-02-28T09:40:53;14.70;;;3.90;;
30046;SDS011;16878;52.542;13.426;2023-02-28T09:43:29;8.57;;;3.13;;
30046;SDS011;16878;52.542;13.426;2023-02-28T09:46:08;4.55;;;2.40;;
30046;SDS011;16878;52.542;13.426;2023-02-28T09:48:40;6.40;;;2.85;;
30046;SDS011;16878;52.542;13.426;2023-02-28T09:51:12;7.88;;;2.63;;
30046;SDS011;16878;52.542;13.426;2023-02-28T09:54:01;2.88;;;2.00;;
30046;SDS011;16878;52.542;13.426;2023-02-28T09:56:30;8.32;;;2.58;;
30046;SDS011;16878;52.542;13.426;2023-02-28T09:59:03;7.78;;;3.13;;
30046;SDS011;16878;52.542;13.426;2023-02-28T10:04:36;7.03;;;2.22;;
30046;SDS011;16878;52.542;13.426;2023-02-28T10:10:05;13.57;;;5.90;;
30046;SDS011;16878;52.542;13.426;2023-02-28T10:12:43;8.38;;;3.58;;
30046;SDS011;16878;52.542;13.426;2023-02-28T10:15:15;8.35;;;2.85;;
30046;SDS011;16878;52.542;13.426;2023-02-28T10:17:43;9.32;;;3.28;;
30046;SDS011;16878;52.542;13.426;2023-02-28T10:20:14;11.77;;;3.55;;
30046;SDS011;16878;52.542;13.426;2023-02-28T10:23:07;9.77;;;3.20;;
30046;SDS011;16878;52.542;13.426;2023-02-28T10:25:42;4.70;;;2.70;;
30046;SDS011;16878;52.542;13.426;2023-02-28T10:28:17;6.95;;;2.40;;
30046;SDS011;16878;52.542;13.426;2023-02-28T10:30:44;3.97;;;2.13;;
30046;SDS011;16878;52.542;13.426;2023-02-28T10:33:33;10.90;;;2.72;;
30046;SDS011;16878;52.542;13.426;2023-02-28T10:35:59;7.03;;;2.92;;
30046;SDS011;16878;52.542;13.426;2023-02-28T10:38:34;5.97;;;2.88;;
30046;SDS011;16878;52.542;13.426;2023-02-28T10:41:15;6.38;;;2.85;;
30046;SDS011;16878;52.542;13.426;2023-02-28T10:43:51;5.70;;;2.97;;
30046;SDS011;16878;52.542;13.426;2023-02-28T10:46:18;9.70;;;2.45;;
30046;SDS011;16878;52.542;13.426;2023-02-28T10:49:12;8.80;;;2.65;;
30046;SDS011;16878;52.542;13.426;2023-02-28T10:51:48;5.68;;;3.08;;
30046;SDS011;16878;52.542;13.426;2023-02-28T10:54:22;7.25;;;2.65;;
30046;SDS011;16878;52.542;13.426;2023-02-28T10:59:52;7.45;;;3.90;;
30046;SDS011;16878;52.542;13.426;2023-02-28T11:02:32;6.25;;;2.30;;
30046;SDS011;16878;52.542;13.426;2023-02-28T11:04:59;6.20;;;2.77;;
30046;SDS011;16878;52.542;13.426;2023-02-28T11:07:25;11.57;;;3.40;;
30046;SDS011;16878;52.542;13.426;2023-02-28T11:09:53;7.97;;;3.53;;
30046;SDS011;16878;52.542;13.426;2023-02-28T11:14:54;14.13;;;3.97;;
30046;SDS011;16878;52.542;13.426;2023-02-28T11:17:24;10.25;;;3.60;;
30046;SDS011;16878;52.542;13.426;2023-02-28T11:19:58;6.18;;;3.92;;
30046;SDS011;16878;52.542;13.426;2023-02-28T11:22:32;8.20;;;3.42;;
30046;SDS011;16878;52.542;13.426;2023-02-28T11:25:07;6.65;;;3.40;;
30046;SDS011;16878;52.542;13.426;2023-02-28T11:30:24;11.82;;;3.80;;
30046;SDS011;16878;52.542;13.426;2023-02-28T11:32:55;10.82;;;3.55;;
30046;SDS011;16878;52.542;13.426;2023-02-28T11:35:26;13.10;;;3.95;;
30046;SDS011;16878;52.542;13.426;2023-02-28T11:38:00;11.65;;;4.00;;
30046;SDS011;16878;52.542;13.426;2023-02-28T11:40:31;11.40;;;4.72;;
30046;SDS011;16878;52.542;13.426;2023-02-28T11:48:45;16.02;;;5.03;;
30046;SDS011;16878;52.542;13.426;2023-02-28T11:51:18;9.40;;;4.57;;
30046;SDS011;16878;52.542;13.426;2023-02-28T11:57:02;13.75;;;4.20;;
30046;SDS011;16878;52.542;13.426;2023-02-28T12:02:40;7.43;;;3.92;;
30046;SDS011;16878;52.542;13.426;2023-02-28T12:05:54;10.10;;;4.40;;
30046;SDS011;16878;52.542;13.426;2023-02-28T12:13:27;7.88;;;4.00;;
30046;SDS011;16878;52.542;13.426;2023-02-28T12:22:02;9.73;;;3.95;;
30046;SDS011;16878;52.542;13.426;2023-02-28T12:25:36;11.32;;;3.95;;
30046;SDS011;16878;52.542;13.426;2023-02-28T12:27:40;9.18;;;4.75;;
30046;SDS011;16878;52.542;13.426;2023-02-28T12:33:32;7.25;;;3.50;;
30046;SDS011;16878;52.542;13.426;2023-02-28T12:36:04;10.93;;;4.40;;
30046;SDS011;16878;52.542;13.426;2023-02-28T12:38:37;13.02;;;4.05;;
30046;SDS011;16878;52.542;13.426;2023-02-28T12:43:46;9.48;;;3.55;;
30046;SDS011;16878;52.542;13.426;2023-02-28T12:46:37;12.07;;;4.32;;
30046;SDS011;16878;52.542;13.426;2023-02-28T12:49:22;10.07;;;4.03;;
30046;SDS011;16878;52.542;13.426;2023-02-28T12:51:53;6.70;;;4.13;;
30046;SDS011;16878;52.542;13.426;2023-02-28T12:56:57;7.97;;;4.18;;
30046;SDS011;16878;52.542;13.426;2023-02-28T12:59:41;8.77;;;3.90;;
30046;SDS011;16878;52.542;13.426;2023-02-28T13:10:11;7.07;;;4.20;;
30046;SDS011;16878;52.542;13.426;2023-02-28T13:12:46;10.98;;;3.90;;
30046;SDS011;16878;52.542;13.426;2023-02-28T13:15:21;14.43;;;4.20;;
30046;SDS011;16878;52.542;13.426;2023-02-28T13:17:53;7.07;;;4.30;;
30046;SDS011;16878;52.542;13.426;2023-02-28T13:20:26;8.43;;;4.40;;
30046;SDS011;16878;52.542;13.426;2023-02-28T13:22:56;6.32;;;3.67;;
30046;SDS011;16878;52.542;13.426;2023-02-28T13:27:48;8.68;;;4.22;;
30046;SDS011;16878;52.542;13.426;2023-02-28T13:33:25;12.98;;;4.50;;
30046;SDS011;16878;52.542;13.426;2023-02-28T13:38:36;8.20;;;3.90;;
30046;SDS011;16878;52.542;13.426;2023-02-28T13:46:28;7.70;;;4.22;;
30046;SDS011;16878;52.542;13.426;2023-02-28T13:48:54;10.10;;;5.15;;
30046;SDS011;16878;52.542;13.426;2023-02-28T13:57:42;12.73;;;4.95;;
30046;SDS011;16878;52.542;13.426;2023-02-28T14:06:15;8.48;;;4.53;;
30046;SDS011;16878;52.542;13.426;2023-02-28T14:11:58;5.68;;;3.50;;
30046;SDS011;16878;52.542;13.426;2023-02-28T14:15:02;5.95;;;3.47;;
30046;SDS011;16878;52.542;13.426;2023-02-28T14:17:28;10.75;;;4.82;;
30046;SDS011;16878;52.542;13.426;2023-02-28T14:19:54;10.10;;;4.30;;
30046;SDS011;16878;52.542;13.426;2023-02-28T14:25:33;6.50;;;3.78;;
30046;SDS011;16878;52.542;13.426;2023-02-28T14:31:07;9.98;;;4.50;;
30046;SDS011;16878;52.542;13.426;2023-02-28T14:36:25;10.77;;;4.75;;
30046;SDS011;16878;52.542;13.426;2023-02-28T14:39:06;10.80;;;4.63;;
30046;SDS011;16878;52.542;13.426;2023-02-28T14:41:37;7.93;;;4.03;;
30046;SDS011;16878;52.542;13.426;2023-02-28T14:46:39;7.25;;;3.70;;
30046;SDS011;16878;52.542;13.426;2023-02-28T14:49:12;10.80;;;4.30;;
30046;SDS011;16878;52.542;13.426;2023-02-28T14:51:47;8.90;;;4.40;;
30046;SDS011;16878;52.542;13.426;2023-02-28T14:54:27;7.80;;;4.00;;
30046;SDS011;16878;52.542;13.426;2023-02-28T14:56:53;9.90;;;4.88;;
30046;SDS011;16878;52.542;13.426;2023-02-28T14:59:27;7.60;;;3.75;;
30046;SDS011;16878;52.542;13.426;2023-02-28T15:04:51;9.30;;;4.30;;
30046;SDS011;16878;52.542;13.426;2023-02-28T15:07:38;12.13;;;5.88;;
30046;SDS011;16878;52.542;13.426;2023-02-28T15:10:13;12.77;;;5.40;;
30046;SDS011;16878;52.542;13.426;2023-02-28T15:12:52;7.93;;;4.43;;
30046;SDS011;16878;52.542;13.426;2023-02-28T15:15:25;10.50;;;4.95;;
30046;SDS011;16878;52.542;13.426;2023-02-28T15:18:00;10.30;;;4.20;;
30046;SDS011;16878;52.542;13.426;2023-02-28T15:20:30;9.95;;;4.80;;
30046;SDS011;16878;52.542;13.426;2023-02-28T15:22:57;11.18;;;6.20;;
30046;SDS011;16878;52.542;13.426;2023-02-28T15:25:23;10.85;;;5.25;;
30046;SDS011;16878;52.542;13.426;2023-02-28T15:27:52;9.32;;;5.97;;
30046;SDS011;16878;52.542;13.426;2023-02-28T15:30:21;25.15;;;4.05;;
30046;SDS011;16878;52.542;13.426;2023-02-28T15:33:02;12.38;;;4.50;;
30046;SDS011;16878;52.542;13.426;2023-02-28T15:35:33;9.02;;;4.65;;
30046;SDS011;16878;52.542;13.426;2023-02-28T15:38:15;9.15;;;5.22;;
30046;SDS011;16878;52.542;13.426;2023-02-28T15:40:53;8.77;;;4.82;;
30046;SDS011;16878;52.542;13.426;2023-02-28T15:48:30;10.48;;;4.85;;
30046;SDS011;16878;52.542;13.426;2023-02-28T15:51:00;10.50;;;4.47;;
30046;SDS011;16878;52.542;13.426;2023-02-28T15:53:36;8.82;;;4.63;;
30046;SDS011;16878;52.542;13.426;2023-02-28T15:59:13;9.00;;;5.35;;
30046;SDS011;16878;52.542;13.426;2023-02-28T16:07:33;13.52;;;5.88;;
30046;SDS011;16878;52.542;13.426;2023-02-28T16:10:01;15.10;;;6.53;;
30046;SDS011;16878;52.542;13.426;2023-02-28T16:12:27;10.95;;;5.45;;
30046;SDS011;16878;52.542;13.426;2023-02-28T16:14:55;18.23;;;5.50;;
30046;SDS011;16878;52.542;13.426;2023-02-28T16:17:28;17.55;;;6.13;;
30046;SDS011;16878;52.542;13.426;2023-02-28T16:19:56;9.05;;;5.00;;
30046;SDS011;16878;52.542;13.426;2023-02-28T16:22:22;10.30;;;5.40;;
30046;SDS011;16878;52.542;13.426;2023-02-28T16:24:48;13.48;;;6.68;;
30046;SDS011;16878;52.542;13.426;2023-02-28T16:27:16;18.73;;;7.47;;
30046;SDS011;16878;52.542;13.426;2023-02-28T16:29:50;12.38;;;6.18;;
30046;SDS011;16878;52.542;13.426;2023-02-28T16:32:16;14.73;;;7.60;;
30046;SDS011;16878;52.542;13.426;2023-02-28T16:34:43;12.60;;;5.47;;
30046;SDS011;16878;52.542;13.426;2023-02-28T16:37:15;11.32;;;5.45;;
30046;SDS011;16878;52.542;13.426;2023-02-28T16:39:43;26.88;;;12.32;;
30046;SDS011;16878;52.542;13.426;2023-02-28T16:42:21;11.07;;;5.72;;
30046;SDS011;16878;52.542;13.426;2023-02-28T16:44:50;24.88;;;7.22;;
30046;SDS011;16878;52.542;13.426;2023-02-28T16:47:17;11.63;;;5.80;;
30046;SDS011;16878;52.542;13.426;2023-02-28T16:49:43;21.40;;;5.95;;
30046;SDS011;16878;52.542;13.426;2023-02-28T16:52:09;20.08;;;6.57;;
30046;SDS011;16878;52.542;13.426;2023-02-28T16:54:37;15.35;;;5.65;;
30046;SDS011;16878;52.542;13.426;2023-02-28T16:57:04;18.52;;;5.95;;
30046;SDS011;16878;52.542;13.426;2023-02-28T16:59:30;18.42;;;6.22;;
30046;SDS011;16878;52.542;13.426;2023-02-28T17:01:56;13.73;;;5.47;;
30046;SDS011;16878;52.542;13.426;2023-02-28T17:04:23;10.70;;;5.05;;
30046;SDS011;16878;52.542;13.426;2023-02-28T17:06:53;14.52;;;5.68;;